Time;durP1;ratioP1;P1;durP2;ratioP2;P2;SDS_P1;SDS_P2;PMS_P1;PMS_P2;Temp;Humidity;BMP_temperature;BMP_pressure;BME280_temperature;BME280_humidity;BME280_pressure;Samples;Min_cycle;Max_cycle;Signal;HPM_P1;HPM_P2
2024/03/15 00:01:11;;;;;;;10.52;7.10;;;23.50;56.50;;;;;;6168457;28;80329;-60
2024/03/15 00:04:11;;;;;;;10.80;8.05;;;23.50;56.40;;;;;;6160692;28;81084;-59
2024/03/15 00:07:12;;;;;;;13.75;10.23;;;23.40;56.20;;;;;;6158271;28;81609;-60
2024/03/15 00:10:12;;;;;;;11.93;8.38;;;23.40;55.60;;;;;;6148656;28;84323;-60
2024/03/15 00:13:13;;;;;;;11.23;8.85;;;23.40;56.10;;;;;;6161018;28;83282;-60
2024/03/15 00:16:14;;;;;;;11.93;8.48;;;23.40;56.10;;;;;;6159858;28;80950;-59
2024/03/15 00:19:14;;;;;;;11.20;8.38;;;23.40;55.90;;;;;;6160386;28;81297;-59
2024/03/15 00:22:15;;;;;;;12.55;8.38;;;23.40;55.90;;;;;;6150896;28;81479;-60
2024/03/15 00:25:18;;;;;;;12.63;9.10;;;23.40;55.60;;;;;;6141885;28;84116;-61
2024/03/15 00:28:19;;;;;;;11.90;8.77;;;23.40;55.30;;;;;;6154914;28;80881;-61
2024/03/15 00:31:19;;;;;;;12.63;9.13;;;23.40;55.20;;;;;;6166996;28;81568;-61
2024/03/15 00:34:20;;;;;;;12.15;8.63;;;23.40;55.20;;;;;;6157839;28;80985;-60
2024/03/15 00:37:20;;;;;;;11.02;8.60;;;23.40;55.10;;;;;;6138978;28;81557;-60
2024/03/15 00:40:21;;;;;;;11.80;8.43;;;23.30;55.10;;;;;;6148790;28;80421;-61
2024/03/15 00:43:22;;;;;;;13.30;9.32;;;23.40;55.30;;;;;;6162408;28;81402;-61
2024/03/15 00:46:22;;;;;;;14.13;9.50;;;23.30;55.10;;;;;;6171910;28;81621;-63
2024/03/15 00:49:23;;;;;;;14.20;9.43;;;23.40;55.20;;;;;;6174754;28;81469;-61
2024/03/15 00:52:23;;;;;;;12.20;8.90;;;23.30;54.90;;;;;;6185299;28;81029;-62
2024/03/15 00:55:30;;;;;;;12.35;8.90;;;23.30;54.90;;;;;;6180376;28;80377;-62
2024/03/15 00:58:30;;;;;;;11.82;8.13;;;23.30;54.70;;;;;;6179285;28;80977;-61
2024/03/15 01:01:31;;;;;;;25.60;9.13;;;23.30;54.80;;;;;;6185860;28;80875;-60
2024/03/15 01:04:31;;;;;;;10.43;7.82;;;23.40;54.80;;;;;;6175089;28;81327;-61
2024/03/15 01:07:32;;;;;;;9.57;6.95;;;23.30;55.00;;;;;;6176370;28;81811;-61
2024/03/15 01:10:33;;;;;;;11.65;8.27;;;23.30;54.70;;;;;;6174528;28;83332;-60
2024/03/15 01:13:33;;;;;;;11.40;8.20;;;23.30;54.60;;;;;;6175677;28;80573;-61
2024/03/15 01:16:34;;;;;;;12.38;8.70;;;23.30;54.60;;;;;;6176363;28;81024;-62
2024/03/15 01:19:34;;;;;;;10.23;7.72;;;23.40;54.60;;;;;;6177346;28;80784;-61
2024/03/15 01:22:35;;;;;;;10.63;8.07;;;23.40;54.70;;;;;;6181085;28;81513;-61
2024/03/15 01:25:37;;;;;;;9.77;7.20;;;23.40;54.20;;;;;;6187413;28;80400;-61
2024/03/15 01:28:39;;;;;;;10.05;7.40;;;23.40;54.70;;;;;;6186637;28;81105;-61
2024/03/15 01:31:39;;;;;;;13.48;9.48;;;23.30;53.90;;;;;;6176081;28;80285;-61
2024/03/15 01:34:40;;;;;;;10.80;7.80;;;23.30;53.90;;;;;;6177674;28;80489;-61
2024/03/15 01:37:41;;;;;;;9.77;7.32;;;23.30;54.30;;;;;;6176659;28;81187;-61
2024/03/15 01:40:41;;;;;;;10.23;6.88;;;23.30;54.50;;;;;;6180232;28;80499;-59
2024/03/15 01:43:42;;;;;;;10.30;7.10;;;23.30;54.50;;;;;;6180307;28;85045;-62
2024/03/15 01:46:42;;;;;;;9.40;6.95;;;23.30;54.20;;;;;;6181143;28;81516;-61
2024/03/15 01:49:43;;;;;;;10.60;7.40;;;23.30;54.30;;;;;;6180273;28;80921;-61
2024/03/15 01:52:44;;;;;;;9.07;6.93;;;23.30;54.10;;;;;;6180801;28;80637;-60
2024/03/15 01:55:45;;;;;;;11.00;8.07;;;23.30;54.20;;;;;;6181147;28;81137;-59
2024/03/15 01:58:45;;;;;;;15.45;6.78;;;23.30;53.90;;;;;;6179508;28;80685;-59
2024/03/15 02:01:47;;;;;;;10.15;7.20;;;23.30;53.90;;;;;;6178645;28;81406;-59
2024/03/15 02:04:53;;;;;;;12.10;7.47;;;23.30;54.00;;;;;;6179187;28;81008;-61
2024/03/15 02:07:54;;;;;;;12.10;7.50;;;23.30;53.80;;;;;;6178957;28;80639;-60
2024/03/15 02:10:55;;;;;;;10.73;7.93;;;23.30;53.70;;;;;;6179020;28;80563;-60
2024/03/15 02:13:56;;;;;;;9.15;6.65;;;23.30;53.60;;;;;;6179312;28;80804;-58
2024/03/15 02:16:57;;;;;;;10.95;8.13;;;23.30;54.00;;;;;;6178752;28;86439;-58
2024/03/15 02:19:57;;;;;;;12.50;8.40;;;23.30;53.30;;;;;;6179891;28;80995;-58
2024/03/15 02:22:58;;;;;;;10.43;7.70;;;23.30;53.20;;;;;;6183796;28;80627;-59
2024/03/15 02:25:58;;;;;;;11.07;7.70;;;23.30;52.60;;;;;;6178782;28;81027;-58
2024/03/15 02:28:59;;;;;;;11.40;7.78;;;23.30;52.70;;;;;;6172873;28;83545;-58
2024/03/15 02:31:59;;;;;;;12.23;8.68;;;23.20;52.90;;;;;;6177592;28;80957;-59
2024/03/15 02:35:00;;;;;;;8.70;7.22;;;23.20;52.60;;;;;;6178430;28;80846;-58
2024/03/15 02:38:00;;;;;;;13.05;7.05;;;23.20;52.60;;;;;;6178049;28;80428;-59
2024/03/15 02:41:01;;;;;;;9.35;7.10;;;23.20;52.80;;;;;;6178625;28;80823;-59
2024/03/15 02:44:01;;;;;;;10.98;7.68;;;23.20;53.00;;;;;;6177662;28;81684;-59
2024/03/15 02:47:03;;;;;;;12.30;8.13;;;23.20;52.90;;;;;;6174493;28;81022;-58
2024/03/15 02:50:04;;;;;;;10.43;7.97;;;23.20;52.70;;;;;;6169156;28;80807;-58
2024/03/15 02:53:04;;;;;;;10.27;7.60;;;23.20;52.70;;;;;;6179269;28;81307;-58
2024/03/15 02:56:05;;;;;;;11.05;8.18;;;23.20;52.50;;;;;;6177984;28;82195;-58
2024/03/15 02:59:07;;;;;;;10.98;8.00;;;23.30;52.30;;;;;;6178787;28;80915;-58
2024/03/15 03:02:08;;;;;;;11.70;8.30;;;23.20;52.20;;;;;;6178925;28;80679;-58
2024/03/15 03:05:09;;;;;;;10.30;7.97;;;23.30;52.20;;;;;;6167377;28;81437;-58
2024/03/15 03:08:09;;;;;;;9.90;7.53;;;23.30;52.20;;;;;;6178048;28;81139;-58
2024/03/15 03:11:11;;;;;;;9.15;7.10;;;23.30;52.20;;;;;;6177888;28;80564;-59
2024/03/15 03:14:15;;;;;;;12.48;7.57;;;23.30;52.00;;;;;;6177657;28;80427;-59
2024/03/15 03:17:16;;;;;;;10.32;7.72;;;23.30;52.10;;;;;;6178046;28;81609;-60
2024/03/15 03:20:20;;;;;;;11.65;8.48;;;23.20;51.90;;;;;;6177373;28;80247;-58
2024/03/15 03:23:21;;;;;;;8.43;6.70;;;23.30;51.80;;;;;;6177803;28;81320;-59
2024/03/15 03:26:22;;;;;;;8.02;6.53;;;23.30;52.40;;;;;;6178193;28;81744;-58
2024/03/15 03:29:22;;;;;;;9.05;6.95;;;23.30;52.30;;;;;;6179076;28;80577;-59
2024/03/15 03:32:23;;;;;;;10.10;7.05;;;23.20;51.80;;;;;;6176583;28;84841;-59
2024/03/15 03:35:24;;;;;;;10.90;7.35;;;23.30;52.30;;;;;;6177429;28;80825;-59
2024/03/15 03:38:25;;;;;;;10.05;7.60;;;23.30;52.20;;;;;;6176859;28;80682;-60
2024/03/15 03:41:25;;;;;;;8.73;6.68;;;23.20;51.80;;;;;;6178559;28;80680;-59
2024/03/15 03:44:26;;;;;;;9.10;6.60;;;23.20;51.90;;;;;;6176651;28;81053;-59
2024/03/15 03:47:28;;;;;;;9.55;7.25;;;23.20;52.20;;;;;;6178858;28;86834;-59
2024/03/15 03:50:29;;;;;;;9.43;6.68;;;23.20;51.70;;;;;;6175543;28;82876;-59
2024/03/15 03:53:30;;;;;;;9.77;7.32;;;23.20;51.80;;;;;;6177315;28;80372;-59
2024/03/15 03:56:30;;;;;;;9.05;7.03;;;23.20;51.90;;;;;;6177309;28;80468;-59
2024/03/15 03:59:31;;;;;;;8.30;6.65;;;23.20;51.60;;;;;;6172518;28;80682;-60
2024/03/15 04:02:31;;;;;;;8.48;6.28;;;23.20;51.90;;;;;;6171332;28;80847;-60
2024/03/15 04:05:32;;;;;;;9.55;6.45;;;23.20;51.70;;;;;;6175023;28;82389;-60
2024/03/15 04:08:34;;;;;;;7.35;6.20;;;23.20;51.60;;;;;;6177887;28;81422;-60
2024/03/15 04:11:35;;;;;;;9.82;7.47;;;23.20;51.40;;;;;;6174356;28;80585;-59
2024/03/15 04:14:35;;;;;;;9.90;7.20;;;23.20;51.00;;;;;;6174717;28;80347;-59
2024/03/15 04:17:36;;;;;;;10.32;7.03;;;23.30;51.20;;;;;;6185998;28;80704;-60
2024/03/15 04:20:39;;;;;;;11.55;7.07;;;23.30;50.70;;;;;;6174152;28;81728;-59
2024/03/15 04:23:39;;;;;;;8.65;7.47;;;23.30;50.70;;;;;;6176893;28;81454;-62
2024/03/15 04:26:40;;;;;;;10.73;7.72;;;23.30;50.20;;;;;;6193073;28;80359;-62
2024/03/15 04:29:40;;;;;;;13.15;7.72;;;23.40;50.00;;;;;;6177077;28;83115;-62
2024/03/15 04:32:41;;;;;;;9.77;7.15;;;23.40;49.70;;;;;;6175800;28;81655;-61
2024/03/15 04:35:41;;;;;;;10.95;7.30;;;23.40;49.50;;;;;;6177777;28;80894;-60
2024/03/15 04:38:43;;;;;;;10.20;8.13;;;23.50;49.30;;;;;;6176175;28;81196;-60
2024/03/15 04:41:44;;;;;;;9.82;7.40;;;23.50;49.10;;;;;;6176134;28;81000;-59
2024/03/15 04:44:44;;;;;;;10.38;7.63;;;23.50;49.10;;;;;;6176026;28;83066;-59
2024/03/15 04:47:45;;;;;;;11.15;7.60;;;23.50;49.10;;;;;;6176058;28;80507;-59
2024/03/15 04:50:46;;;;;;;10.68;7.72;;;23.50;48.80;;;;;;6175568;28;81479;-58
2024/03/15 04:53:46;;;;;;;10.57;7.55;;;23.50;48.90;;;;;;6176810;28;80369;-58
2024/03/15 04:56:47;;;;;;;11.15;7.90;;;23.50;48.50;;;;;;6175521;28;81034;-56
2024/03/15 04:59:47;;;;;;;12.50;8.23;;;23.60;48.60;;;;;;6174468;28;80313;-58
2024/03/15 05:02:48;;;;;;;9.23;6.53;;;23.60;48.80;;;;;;6189338;28;81126;-55
2024/03/15 05:05:50;;;;;;;9.35;6.82;;;23.60;48.80;;;;;;6176194;28;80972;-53
2024/03/15 05:08:50;;;;;;;9.05;6.32;;;23.60;48.90;;;;;;6176343;28;80315;-53
2024/03/15 05:11:51;;;;;;;14.07;6.35;;;23.60;48.90;;;;;;6172181;28;80273;-55
2024/03/15 05:14:51;;;;;;;9.75;6.20;;;23.60;49.00;;;;;;6178349;28;80133;-55
2024/03/15 05:17:52;;;;;;;9.25;6.45;;;23.60;49.10;;;;;;6156580;28;81830;-55
2024/03/15 05:20:53;;;;;;;8.23;6.45;;;23.60;49.40;;;;;;6180552;28;81110;-55
2024/03/15 05:23:54;;;;;;;9.55;6.40;;;23.60;49.50;;;;;;6180797;28;82413;-50
2024/03/15 05:26:54;;;;;;;8.77;6.22;;;23.70;49.80;;;;;;6180328;28;80503;-53
2024/03/15 05:29:55;;;;;;;10.05;6.13;;;23.70;49.90;;;;;;6180047;28;81429;-58
2024/03/15 05:32:55;;;;;;;15.98;6.93;;;23.70;50.20;;;;;;6180039;28;80508;-56
2024/03/15 05:35:56;;;;;;;8.63;6.25;;;23.70;50.50;;;;;;6180251;28;80677;-56
2024/03/15 05:38:56;;;;;;;7.68;6.00;;;23.70;50.20;;;;;;6175511;28;80832;-50
2024/03/15 05:41:57;;;;;;;9.27;6.00;;;23.70;50.00;;;;;;6169062;28;81078;-53
2024/03/15 05:44:58;;;;;;;9.23;6.13;;;23.70;49.80;;;;;;6176717;28;83819;-59
2024/03/15 05:47:58;;;;;;;14.25;5.88;;;23.70;50.30;;;;;;6174778;28;80902;-57
2024/03/15 05:50:59;;;;;;;9.82;5.85;;;23.70;50.20;;;;;;6170508;28;81765;-55
2024/03/15 05:53:59;;;;;;;13.05;5.80;;;23.80;50.00;;;;;;6177425;28;80334;-59
2024/03/15 05:57:00;;;;;;;7.43;5.47;;;23.80;50.00;;;;;;6163321;28;80746;-58
2024/03/15 06:00:10;;;;;;;9.55;6.13;;;23.80;49.80;;;;;;6173462;28;83032;-57
2024/03/15 06:03:12;;;;;;;9.63;6.40;;;23.80;49.70;;;;;;6173532;28;81564;-55
2024/03/15 06:06:13;;;;;;;9.65;5.57;;;23.80;49.60;;;;;;6173005;28;80680;-56
2024/03/15 06:09:14;;;;;;;8.43;5.90;;;23.80;49.70;;;;;;6173470;28;81091;-57
2024/03/15 06:12:16;;;;;;;10.50;6.45;;;23.80;49.60;;;;;;6174266;28;80549;-57
2024/03/15 06:15:19;;;;;;;11.05;6.53;;;23.80;49.80;;;;;;6173938;28;80561;-57
2024/03/15 06:18:19;;;;;;;7.72;5.60;;;23.70;49.50;;;;;;6159682;28;83558;-54
2024/03/15 06:21:20;;;;;;;9.15;6.25;;;23.70;49.50;;;;;;6170415;28;80679;-59
2024/03/15 06:24:20;;;;;;;8.70;6.40;;;23.70;49.80;;;;;;6170865;28;81125;-59
2024/03/15 06:27:21;;;;;;;8.73;5.97;;;23.70;49.40;;;;;;6176499;28;80615;-58
2024/03/15 06:30:21;;;;;;;11.02;7.22;;;23.70;49.50;;;;;;6168102;28;81867;-65
2024/03/15 06:33:28;;;;;;;9.27;5.97;;;23.70;49.40;;;;;;6176716;28;81179;-64
2024/03/15 06:36:31;;;;;;;7.03;5.90;;;23.70;49.40;;;;;;6166803;28;80733;-63
2024/03/15 06:43:09;;;;;;;11.35;6.28;;;23.60;49.10;;;;;;6177768;28;81772;-68
2024/03/15 06:46:07;;;;;;;8.35;5.80;;;23.60;49.20;;;;;;6177696;28;80397;-65
2024/03/15 06:49:16;;;;;;;9.95;6.85;;;23.60;49.90;;;;;;6179392;28;80670;-57
2024/03/15 06:52:34;;;;;;;10.55;6.03;;;23.60;49.00;;;;;;6179050;28;81267;-58
2024/03/15 06:55:34;;;;;;;9.65;6.63;;;23.60;49.40;;;;;;6188759;28;80797;-58
2024/03/15 06:58:35;;;;;;;13.43;6.47;;;23.60;49.20;;;;;;6156354;28;81332;-57
2024/03/15 07:01:36;;;;;;;11.55;7.15;;;23.60;48.50;;;;;;6160736;28;82913;-58
2024/03/15 07:04:37;;;;;;;10.85;7.43;;;23.60;48.70;;;;;;6154285;28;82394;-58
2024/03/15 07:07:37;;;;;;;11.95;6.80;;;23.60;48.60;;;;;;6168849;28;82060;-58
2024/03/15 07:10:38;;;;;;;8.35;6.57;;;23.60;48.50;;;;;;6163554;28;81171;-57
2024/03/15 07:13:38;;;;;;;10.68;7.05;;;23.60;48.60;;;;;;6171297;28;82881;-57
2024/03/15 07:16:39;;;;;;;10.60;7.32;;;23.50;48.90;;;;;;6172977;28;80736;-57
2024/03/15 07:19:39;;;;;;;9.73;6.95;;;23.50;48.20;;;;;;6170734;28;83779;-57
2024/03/15 07:22:43;;;;;;;12.15;7.93;;;23.50;48.10;;;;;;6172082;28;82308;-57
2024/03/15 07:25:46;;;;;;;10.00;6.85;;;23.50;48.30;;;;;;6171961;28;83613;-55
2024/03/15 07:28:46;;;;;;;11.02;7.53;;;23.50;48.30;;;;;;6169651;28;81404;-56
2024/03/15 07:31:47;;;;;;;9.75;7.45;;;23.50;48.20;;;;;;6171084;28;81345;-56
2024/03/15 07:34:48;;;;;;;10.40;7.97;;;23.50;48.30;;;;;;6171701;28;80313;-56
2024/03/15 07:37:53;;;;;;;11.30;8.10;;;23.50;48.50;;;;;;6167785;28;80548;-57
2024/03/15 07:40:54;;;;;;;13.73;8.17;;;23.40;48.30;;;;;;6168473;28;80610;-56
2024/03/15 07:43:54;;;;;;;14.98;8.52;;;23.50;48.30;;;;;;6171263;28;80721;-61
2024/03/15 07:46:56;;;;;;;13.98;8.68;;;23.40;48.30;;;;;;6172070;28;82548;-60
2024/03/15 07:49:56;;;;;;;10.77;7.80;;;23.40;48.20;;;;;;6168378;28;80406;-60
2024/03/15 07:52:57;;;;;;;11.65;7.78;;;23.40;48.50;;;;;;6171629;28;81501;-60
2024/03/15 07:55:57;;;;;;;13.63;8.43;;;23.50;48.40;;;;;;6171833;28;80612;-61
2024/03/15 07:58:58;;;;;;;15.93;8.98;;;23.50;48.40;;;;;;6168838;28;82559;-61
2024/03/15 08:01:59;;;;;;;11.15;8.02;;;23.50;49.00;;;;;;6172926;28;81402;-62
2024/03/15 08:05:00;;;;;;;12.50;8.25;;;23.40;48.40;;;;;;6169600;28;80627;-62
2024/03/15 08:08:00;;;;;;;14.18;8.32;;;23.40;48.10;;;;;;6169052;28;81902;-61
2024/03/15 08:11:01;;;;;;;11.90;8.13;;;23.40;48.30;;;;;;6170361;28;80937;-60
2024/03/15 08:14:08;;;;;;;12.93;8.88;;;23.40;48.50;;;;;;6168611;28;80368;-60
2024/03/15 08:17:08;;;;;;;11.63;8.50;;;23.40;48.50;;;;;;6168241;28;81803;-60
2024/03/15 08:20:10;;;;;;;11.73;7.85;;;23.50;48.70;;;;;;6169348;28;82556;-60
2024/03/15 08:23:10;;;;;;;13.60;7.45;;;23.40;48.50;;;;;;6169971;28;80434;-61
2024/03/15 08:26:12;;;;;;;12.82;8.27;;;23.40;48.60;;;;;;6171858;28;80588;-61
2024/03/15 08:29:13;;;;;;;9.77;7.15;;;23.40;48.50;;;;;;6169921;28;81012;-61
2024/03/15 08:32:14;;;;;;;12.70;7.93;;;23.40;48.50;;;;;;6170913;28;80920;-60
2024/03/15 08:35:14;;;;;;;13.70;7.93;;;23.40;48.50;;;;;;6170352;28;82225;-60
2024/03/15 08:38:15;;;;;;;14.18;7.95;;;23.40;48.50;;;;;;6167420;28;80896;-61
2024/03/15 08:41:17;;;;;;;10.27;7.68;;;23.40;48.40;;;;;;6170257;28;81749;-61
2024/03/15 08:44:17;;;;;;;9.77;7.35;;;23.40;48.50;;;;;;6171340;28;80226;-62
2024/03/15 08:47:18;;;;;;;11.20;7.75;;;23.40;48.50;;;;;;6167891;28;81260;-61
2024/03/15 08:50:20;;;;;;;13.25;7.93;;;23.40;48.40;;;;;;6168357;28;80555;-61
2024/03/15 08:53:20;;;;;;;11.52;7.68;;;23.40;48.30;;;;;;6170045;28;81653;-61
2024/03/15 08:56:24;;;;;;;12.32;8.00;;;23.30;48.40;;;;;;6171001;28;81706;-58
2024/03/15 08:59:24;;;;;;;10.52;7.13;;;23.40;48.50;;;;;;6174108;28;81427;-59
2024/03/15 09:02:26;;;;;;;14.13;7.75;;;23.40;48.60;;;;;;6174170;28;84552;-59
2024/03/15 09:05:27;;;;;;;11.20;7.70;;;23.40;48.80;;;;;;6172714;28;81613;-60
2024/03/15 09:08:27;;;;;;;11.57;7.00;;;23.40;48.60;;;;;;6176589;28;84075;-60
2024/03/15 09:11:28;;;;;;;8.07;6.35;;;23.40;48.60;;;;;;6173647;28;80378;-57
2024/03/15 09:14:29;;;;;;;11.35;7.53;;;23.50;49.10;;;;;;6177569;28;83583;-62
2024/03/15 09:17:30;;;;;;;8.77;6.28;;;23.40;48.60;;;;;;6175423;28;81371;-59
2024/03/15 09:23:31;;;;;;;10.75;7.20;;;23.50;48.30;;;;;;6170437;28;80560;-67
2024/03/15 09:26:31;;;;;;;10.45;7.40;;;23.50;48.50;;;;;;6175350;28;81151;-64
2024/03/15 09:29:32;;;;;;;13.82;7.18;;;23.50;48.40;;;;;;6171227;28;90096;-59
2024/03/15 09:32:33;;;;;;;9.90;6.93;;;23.60;49.00;;;;;;6174840;28;80691;-63
2024/03/15 09:35:33;;;;;;;10.98;7.28;;;23.60;48.40;;;;;;6171544;28;80558;-66
2024/03/15 09:38:37;;;;;;;13.27;7.05;;;23.60;48.70;;;;;;6166258;28;81822;-63
2024/03/15 09:41:38;;;;;;;9.18;6.82;;;23.70;48.70;;;;;;6170938;28;80778;-61
2024/03/15 09:44:38;;;;;;;11.68;7.15;;;23.70;48.60;;;;;;6174163;28;81170;-63
2024/03/15 09:47:39;;;;;;;10.07;7.10;;;23.70;48.40;;;;;;6188466;28;80672;-66
2024/03/15 09:50:40;;;;;;;9.80;6.00;;;23.70;48.70;;;;;;6180250;28;82584;-60
2024/03/15 09:53:41;;;;;;;12.23;7.10;;;23.80;48.50;;;;;;6172994;28;83217;-62
2024/03/15 09:56:43;;;;;;;10.13;6.35;;;23.80;48.60;;;;;;6175222;28;80730;-61
2024/03/15 09:59:43;;;;;;;9.60;6.80;;;23.80;48.40;;;;;;6172527;28;80280;-62
2024/03/15 10:02:51;;;;;;;10.85;7.15;;;23.80;48.40;;;;;;6178370;28;82840;-62
2024/03/15 10:05:53;;;;;;;10.65;7.05;;;23.90;48.30;;;;;;6173826;28;81215;-62
2024/03/15 10:08:53;;;;;;;10.25;7.80;;;23.90;48.20;;;;;;6178555;28;80936;-62
2024/03/15 10:11:54;;;;;;;9.50;6.88;;;24.00;48.20;;;;;;6177877;28;84992;-62
2024/03/15 10:14:54;;;;;;;11.85;7.28;;;24.00;48.20;;;;;;6175286;28;81838;-61
2024/03/15 10:17:55;;;;;;;8.35;6.30;;;24.10;48.10;;;;;;6178127;28;80476;-61
2024/03/15 10:20:55;;;;;;;9.45;6.60;;;24.10;47.90;;;;;;6177914;28;82454;-63
2024/03/15 10:23:58;;;;;;;9.57;6.75;;;24.20;47.80;;;;;;6183751;28;80182;-63
2024/03/15 10:26:58;;;;;;;10.52;7.55;;;24.30;47.90;;;;;;6184350;28;80627;-63
2024/03/15 10:29:59;;;;;;;10.13;7.65;;;24.40;47.90;;;;;;6179938;28;80966;-61
2024/03/15 10:32:59;;;;;;;11.82;7.85;;;24.40;47.80;;;;;;6178800;28;80476;-62
2024/03/15 10:36:00;;;;;;;16.65;7.28;;;24.40;47.80;;;;;;6168869;28;81292;-59
2024/03/15 10:39:00;;;;;;;9.57;6.72;;;24.40;47.90;;;;;;6175530;28;80923;-58
2024/03/15 10:42:01;;;;;;;9.70;6.68;;;24.40;48.40;;;;;;6166780;28;80652;-60
2024/03/15 10:45:01;;;;;;;12.32;6.60;;;24.50;48.20;;;;;;6171333;28;80500;-61
2024/03/15 10:48:02;;;;;;;10.68;7.30;;;24.60;48.10;;;;;;6175834;28;80713;-60
2024/03/15 10:51:02;;;;;;;10.55;6.70;;;24.60;47.90;;;;;;6175180;28;84999;-60
2024/03/15 10:54:04;;;;;;;11.45;7.57;;;24.70;47.90;;;;;;6177694;28;82574;-60
2024/03/15 10:57:04;;;;;;;11.70;7.15;;;24.70;47.80;;;;;;6178867;28;83106;-60
2024/03/15 11:00:14;;;;;;;10.75;6.95;;;24.70;47.60;;;;;;6178231;28;80954;-60
2024/03/15 11:03:15;;;;;;;13.27;6.85;;;24.70;47.60;;;;;;6177755;28;81121;-60
2024/03/15 11:06:15;;;;;;;9.48;6.38;;;24.70;47.50;;;;;;6178459;28;81194;-61
2024/03/15 11:09:16;;;;;;;9.65;6.70;;;24.80;47.50;;;;;;6178075;28;80307;-61
2024/03/15 11:12:19;;;;;;;7.93;6.10;;;24.80;47.40;;;;;;6178195;28;81409;-60
2024/03/15 11:15:20;;;;;;;10.52;7.07;;;24.80;47.40;;;;;;6178254;28;83432;-60
2024/03/15 11:18:20;;;;;;;8.18;6.43;;;24.90;47.40;;;;;;6179292;28;80889;-62
2024/03/15 11:21:21;;;;;;;8.07;6.95;;;24.90;47.40;;;;;;6189483;28;81278;-61
2024/03/15 11:24:21;;;;;;;10.10;6.65;;;24.90;47.50;;;;;;6178990;28;81059;-62
2024/03/15 11:27:22;;;;;;;8.60;6.13;;;24.90;47.30;;;;;;6178247;28;80870;-61
2024/03/15 11:30:23;;;;;;;8.80;6.15;;;24.90;47.30;;;;;;6178253;28;81216;-62
2024/03/15 11:33:23;;;;;;;8.27;6.55;;;24.90;47.30;;;;;;6159707;28;83019;-63
2024/03/15 11:36:24;;;;;;;19.42;7.05;;;24.90;47.30;;;;;;6174517;28;81644;-61
2024/03/15 11:39:25;;;;;;;10.98;7.38;;;25.00;47.50;;;;;;6166819;28;81267;-59
2024/03/15 11:42:26;;;;;;;15.82;8.90;;;25.00;48.60;;;;;;6171824;28;80104;-58
2024/03/15 11:45:26;;;;;;;12.77;9.20;;;24.90;47.60;;;;;;6168195;28;82169;-57
2024/03/15 11:48:27;;;;;;;14.00;9.18;;;24.90;46.50;;;;;;6171923;28;81288;-58
2024/03/15 11:51:27;;;;;;;13.45;9.32;;;24.90;46.30;;;;;;6174319;28;81360;-57
2024/03/15 11:54:28;;;;;;;15.52;9.48;;;24.90;46.10;;;;;;6173413;28;80930;-58
2024/03/15 11:57:28;;;;;;;17.48;9.55;;;24.90;45.70;;;;;;6173582;28;80608;-59
2024/03/15 12:00:29;;;;;;;14.35;9.43;;;24.90;46.00;;;;;;6174215;28;80834;-58
2024/03/15 12:03:31;;;;;;;14.18;8.23;;;24.90;45.80;;;;;;6174526;28;80836;-57
2024/03/15 12:06:31;;;;;;;12.40;8.48;;;25.00;45.70;;;;;;6175577;28;81085;-57
2024/03/15 12:09:32;;;;;;;12.48;8.75;;;25.00;45.70;;;;;;6177834;28;81707;-58
2024/03/15 12:12:32;;;;;;;13.05;8.88;;;25.00;45.60;;;;;;6177178;28;80602;-59
2024/03/15 12:15:33;;;;;;;13.07;8.73;;;25.00;45.50;;;;;;6176671;28;80490;-59
2024/03/15 12:18:34;;;;;;;11.90;8.88;;;25.00;45.60;;;;;;6176670;28;81764;-59
2024/03/15 12:21:34;;;;;;;13.30;8.73;;;25.00;45.50;;;;;;6176904;28;80391;-58
2024/03/15 12:24:35;;;;;;;14.25;9.27;;;25.00;45.40;;;;;;6176073;28;80819;-58
2024/03/15 12:27:35;;;;;;;10.77;7.80;;;25.00;45.30;;;;;;6177765;28;80292;-57
2024/03/15 12:30:36;;;;;;;13.98;8.55;;;25.00;45.40;;;;;;6176861;28;80323;-55
2024/03/15 12:33:37;;;;;;;11.63;8.52;;;25.00;45.10;;;;;;6176230;28;81311;-58
2024/03/15 12:36:37;;;;;;;12.25;7.95;;;25.00;45.10;;;;;;6176164;28;82809;-62
2024/03/15 12:39:38;;;;;;;12.07;8.88;;;25.00;45.20;;;;;;6176385;28;80560;-61
2024/03/15 12:42:38;;;;;;;11.32;8.52;;;25.00;45.00;;;;;;6174325;28;82915;-61
2024/03/15 12:45:40;;;;;;;13.02;8.85;;;25.10;45.10;;;;;;6175920;28;81050;-61
2024/03/15 12:48:41;;;;;;;12.63;7.75;;;25.00;44.90;;;;;;6176658;28;80544;-61
2024/03/15 12:51:41;;;;;;;13.80;8.23;;;25.00;44.90;;;;;;6176292;28;80497;-61
2024/03/15 12:54:42;;;;;;;12.85;8.13;;;25.00;44.80;;;;;;6159897;28;82908;-58
2024/03/15 12:57:42;;;;;;;10.75;7.45;;;25.00;44.90;;;;;;6157121;28;85458;-59
2024/03/15 13:00:43;;;;;;;12.68;8.10;;;25.10;45.00;;;;;;6165349;28;81498;-57
2024/03/15 13:03:44;;;;;;;13.43;8.05;;;25.00;44.70;;;;;;6168314;28;80581;-57
2024/03/15 13:06:45;;;;;;;14.18;7.82;;;25.00;44.40;;;;;;6158341;28;85567;-53
2024/03/15 13:09:46;;;;;;;23.35;7.57;;;25.00;44.30;;;;;;6172417;28;82575;-55
2024/03/15 13:12:46;;;;;;;14.48;7.85;;;25.00;44.50;;;;;;6174150;28;80575;-59
2024/03/15 13:15:47;;;;;;;16.10;7.80;;;24.90;44.30;;;;;;6173504;28;81311;-59
2024/03/15 13:18:48;;;;;;;13.55;7.80;;;24.90;43.10;;;;;;6176131;28;80641;-59
2024/03/15 13:21:48;;;;;;;14.68;7.25;;;24.80;42.90;;;;;;6174972;28;81809;-57
2024/03/15 13:24:49;;;;;;;10.75;7.38;;;24.80;43.10;;;;;;6175606;28;80478;-61
2024/03/15 13:27:52;;;;;;;10.75;7.45;;;24.70;42.60;;;;;;6175996;28;80688;-59
2024/03/15 13:30:53;;;;;;;10.48;7.07;;;24.70;41.60;;;;;;6175753;28;80961;-62
2024/03/15 13:33:53;;;;;;;8.75;6.75;;;24.60;41.30;;;;;;6175834;28;81242;-60
2024/03/15 13:36:54;;;;;;;11.27;6.40;;;24.60;41.00;;;;;;6175568;28;82153;-58
2024/03/15 13:39:54;;;;;;;8.75;6.57;;;24.50;41.20;;;;;;6189897;28;80763;-61
2024/03/15 13:42:55;;;;;;;10.27;7.03;;;24.50;41.20;;;;;;6179284;28;80575;-59
2024/03/15 13:45:57;;;;;;;12.70;7.22;;;24.50;41.50;;;;;;6192472;28;80904;-62
2024/03/15 13:48:57;;;;;;;9.63;6.78;;;24.40;41.30;;;;;;6179516;28;81506;-60
2024/03/15 13:51:58;;;;;;;8.68;5.80;;;24.40;41.40;;;;;;6180350;28;80480;-55
2024/03/15 13:54:59;;;;;;;11.23;6.63;;;24.40;41.40;;;;;;6179401;28;80782;-59
2024/03/15 13:58:00;;;;;;;11.95;6.60;;;24.30;41.10;;;;;;6174547;28;83631;-59
2024/03/15 14:01:00;;;;;;;14.70;6.45;;;24.30;41.40;;;;;;6173728;28;83114;-59
2024/03/15 14:04:01;;;;;;;15.90;5.75;;;24.30;41.40;;;;;;6177458;28;80936;-59
2024/03/15 14:07:02;;;;;;;14.95;6.03;;;24.30;42.40;;;;;;6177675;28;80560;-58
2024/03/15 14:10:02;;;;;;;12.45;5.30;;;24.30;41.70;;;;;;6174510;28;80693;-59
2024/03/15 14:13:04;;;;;;;12.70;5.53;;;24.30;41.90;;;;;;6174041;28;81151;-59
2024/03/15 14:16:04;;;;;;;8.77;5.95;;;24.30;41.60;;;;;;6170883;28;80652;-59
2024/03/15 14:19:05;;;;;;;9.05;5.97;;;24.20;41.30;;;;;;6171784;28;80931;-59
2024/03/15 14:22:05;;;;;;;9.25;6.25;;;24.20;41.40;;;;;;6171632;28;81159;-58
2024/03/15 14:25:06;;;;;;;9.30;6.32;;;24.20;41.80;;;;;;6169255;28;80425;-56
2024/03/15 14:28:07;;;;;;;9.32;6.68;;;24.10;41.20;;;;;;6179415;28;80797;-60
2024/03/15 14:31:08;;;;;;;9.43;6.47;;;24.10;42.00;;;;;;6178505;28;80799;-62
2024/03/15 14:34:09;;;;;;;9.10;6.60;;;24.00;42.00;;;;;;6175140;28;80461;-64
2024/03/15 14:37:10;;;;;;;8.57;6.22;;;24.00;42.90;;;;;;6174872;28;80821;-63
2024/03/15 14:40:17;;;;;;;6.85;5.30;;;24.00;42.80;;;;;;6177650;28;82882;-62
2024/03/15 14:43:18;;;;;;;10.32;5.60;;;24.00;42.70;;;;;;6178756;28;81695;-59
2024/03/15 14:46:18;;;;;;;8.80;6.47;;;24.00;43.30;;;;;;6167498;28;80182;-59
2024/03/15 14:49:21;;;;;;;8.60;6.50;;;23.90;42.90;;;;;;6164634;28;80263;-60
2024/03/15 14:52:22;;;;;;;8.23;5.75;;;23.90;43.00;;;;;;6173304;28;80846;-64
2024/03/15 14:55:30;;;;;;;9.02;5.70;;;23.90;42.70;;;;;;6170084;28;81745;-65
2024/03/15 14:58:30;;;;;;;18.02;5.50;;;23.90;42.40;;;;;;6173159;28;82788;-62
2024/03/15 15:01:31;;;;;;;7.60;5.95;;;23.80;42.70;;;;;;6170747;28;85627;-62
2024/03/15 15:04:31;;;;;;;9.40;6.32;;;23.70;42.80;;;;;;6170209;28;80983;-62
2024/03/15 15:07:32;;;;;;;7.22;5.18;;;23.70;42.80;;;;;;6172635;28;82786;-63
2024/03/15 15:10:37;;;;;;;6.97;5.75;;;23.70;42.80;;;;;;6173158;28;81388;-63
2024/03/15 15:13:38;;;;;;;9.85;5.35;;;23.70;42.60;;;;;;6176870;28;82186;-63
2024/03/15 15:16:39;;;;;;;9.68;6.05;;;23.60;42.50;;;;;;6172312;28;81945;-63
2024/03/15 15:19:40;;;;;;;7.10;4.97;;;23.60;42.50;;;;;;6180508;28;80180;-63
2024/03/15 15:22:40;;;;;;;6.68;4.97;;;23.60;42.90;;;;;;6179519;28;80328;-60
2024/03/15 15:25:41;;;;;;;7.15;5.13;;;23.60;42.80;;;;;;6179559;28;80676;-58
2024/03/15 15:28:41;;;;;;;7.00;4.90;;;23.60;42.80;;;;;;6175615;28;80591;-59
2024/03/15 15:31:42;;;;;;;7.03;5.45;;;23.50;42.90;;;;;;6180202;28;81371;-59
2024/03/15 15:34:42;;;;;;;7.30;4.80;;;23.60;43.20;;;;;;6178493;28;81807;-60
2024/03/15 15:37:43;;;;;;;7.82;4.78;;;23.60;43.00;;;;;;6179174;28;82871;-60
2024/03/15 15:40:43;;;;;;;6.18;4.90;;;23.50;43.10;;;;;;6178604;28;80961;-58